Time;durP1;ratioP1;P1;durP2;ratioP2;P2;SDS_P1;SDS_P2;PMS_P1;PMS_P2;Temp;Humidity;BMP_temperature;BMP_pressure;BME280_temperature;BME280_humidity;BME280_pressure;Samples;Min_cycle;Max_cycle;Signal;HPM_P1;HPM_P2
2022/07/04 00:00:23;;;;;;;1.28;0.92;;;18.80;98.40;;;;;;4687933;28;10000546;-78
2022/07/04 00:02:50;;;;;;;1.33;1.08;;;18.80;98.30;;;;;;5034821;28;20116;-78
2022/07/04 00:05:17;;;;;;;3.45;1.27;;;18.70;98.90;;;;;;5044622;28;20051;-78
2022/07/04 00:07:49;;;;;;;2.00;1.20;;;18.70;98.90;;;;;;5043031;28;20037;-78
2022/07/04 00:10:16;;;;;;;5.10;1.30;;;18.60;99.10;;;;;;5043708;28;20095;-78
2022/07/04 00:12:42;;;;;;;2.22;1.30;;;18.60;99.50;;;;;;5036468;28;20031;-78
2022/07/04 00:15:09;;;;;;;3.00;1.50;;;18.50;99.70;;;;;;5039807;28;20040;-78
2022/07/04 00:17:35;;;;;;;2.20;1.27;;;18.40;99.90;;;;;;5045338;28;20136;-78
2022/07/04 00:20:02;;;;;;;2.97;1.40;;;18.30;99.90;;;;;;5039508;28;20595;-79
2022/07/04 00:22:27;;;;;;;4.03;1.30;;;18.20;99.90;;;;;;5039857;28;20358;-78
2022/07/04 00:24:53;;;;;;;3.08;1.52;;;;;;;;;;5042174;28;20021;-78
2022/07/04 00:27:19;;;;;;;3.50;1.35;;;;;;;;;;5043131;28;20545;-78
2022/07/04 00:29:45;;;;;;;2.72;1.30;;;;;;;;;;5034431;28;20173;-79
2022/07/04 00:32:11;;;;;;;4.32;1.27;;;18.00;99.90;;;;;;5041044;28;20033;-78
2022/07/04 00:34:37;;;;;;;2.42;1.23;;;18.00;99.90;;;;;;5052868;28;20105;-79
2022/07/04 00:37:02;;;;;;;3.38;1.35;;;17.90;99.90;;;;;;5044081;28;20033;-78
2022/07/04 00:39:29;;;;;;;3.45;1.20;;;17.80;99.90;;;;;;5041113;28;20045;-78
2022/07/04 00:41:55;;;;;;;1.10;1.00;;;;;;;;;;5040181;28;20037;-78
2022/07/04 00:44:21;;;;;;;3.22;1.27;;;;;;;;;;5044071;28;20043;-78
2022/07/04 00:46:47;;;;;;;2.90;1.20;;;;;;;;;;5033957;28;20091;-78
2022/07/04 00:49:14;;;;;;;2.10;1.40;;;;;;;;;;5036542;28;20029;-79
2022/07/04 00:51:41;;;;;;;2.03;1.40;;;;;;;;;;5038778;28;20500;-78
2022/07/04 00:54:08;;;;;;;2.95;1.67;;;;;;;;;;5042632;28;20048;-78
2022/07/04 00:56:37;;;;;;;3.55;1.65;;;;;;;;;;5038639;28;20480;-79
2022/07/04 00:59:03;;;;;;;2.35;1.40;;;;;;;;;;5033536;28;20045;-78
2022/07/04 01:01:29;;;;;;;4.55;1.65;;;;;;;;;;5048115;28;20028;-78
2022/07/04 01:03:56;;;;;;;2.85;1.63;;;;;;;;;;5037362;28;20188;-78
2022/07/04 01:06:23;;;;;;;3.33;1.50;;;;;;;;;;5039437;28;20036;-78
2022/07/04 01:08:49;;;;;;;4.10;2.00;;;;;;;;;;5041922;28;20163;-78
2022/07/04 01:11:15;;;;;;;3.33;1.30;;;;;;;;;;5032144;28;20449;-79
2022/07/04 01:13:42;;;;;;;2.28;1.80;;;;;;;;;;5042598;28;20025;-78
2022/07/04 01:16:08;;;;;;;2.05;1.40;;;;;;;;;;5044537;28;20032;-78
2022/07/04 01:18:34;;;;;;;5.32;1.52;;;;;;;;;;5040469;28;20021;-78
2022/07/04 01:21:00;;;;;;;3.58;1.70;;;;;;;;;;5041502;28;20028;-78
2022/07/04 01:23:26;;;;;;;4.45;1.48;;;;;;;;;;5040058;28;20021;-79
2022/07/04 01:25:52;;;;;;;2.33;1.55;;;;;;;;;;5037893;28;20413;-79
2022/07/04 01:28:18;;;;;;;5.25;1.45;;;;;;;;;;5042857;28;20063;-78
2022/07/04 01:30:45;;;;;;;1.55;1.40;;;;;;;;;;5037668;28;20241;-78
2022/07/04 01:33:11;;;;;;;2.00;1.30;;;;;;;;;;5048331;28;20020;-78
2022/07/04 01:35:37;;;;;;;2.60;1.40;;;;;;;;;;5039906;28;20508;-78
2022/07/04 01:38:03;;;;;;;1.75;1.55;;;;;;;;;;5041811;28;20227;-78
2022/07/04 01:40:29;;;;;;;1.80;1.15;;;;;;;;;;5043318;28;20484;-78
2022/07/04 01:42:55;;;;;;;4.93;1.67;;;;;;;;;;5040063;28;20033;-78
2022/07/04 01:45:21;;;;;;;2.70;1.52;;;;;;;;;;5043786;28;20380;-78
2022/07/04 01:47:47;;;;;;;2.85;1.25;;;;;;;;;;5033704;28;20017;-78
2022/07/04 01:50:13;;;;;;;2.78;1.17;;;;;;;;;;5040580;28;20024;-78
2022/07/04 01:52:40;;;;;;;2.10;1.20;;;;;;;;;;5034164;28;20509;-79
2022/07/04 01:55:06;;;;;;;1.75;1.30;;;;;;;;;;5035793;28;20321;-78
2022/07/04 01:57:32;;;;;;;2.58;1.40;;;17.20;99.90;;;;;;5035725;28;20052;-79
2022/07/04 02:02:42;;;;;;;2.25;1.08;;;17.10;99.90;;;;;;5044721;28;20048;-79
2022/07/04 02:05:08;;;;;;;1.33;1.23;;;17.00;99.90;;;;;;5047071;28;20033;-78
2022/07/04 02:07:33;;;;;;;1.42;1.10;;;16.90;99.90;;;;;;5030951;28;20028;-78
2022/07/04 02:09:59;;;;;;;1.73;1.10;;;16.90;99.90;;;;;;5037729;28;20024;-78
2022/07/04 02:15:09;;;;;;;1.50;1.40;;;16.80;99.90;;;;;;5041557;28;20503;-78
2022/07/04 02:17:35;;;;;;;2.83;1.45;;;16.70;99.90;;;;;;5043419;28;20041;-78
2022/07/04 02:20:01;;;;;;;2.15;1.35;;;16.70;99.90;;;;;;5040049;28;20021;-78
2022/07/04 02:22:26;;;;;;;1.60;1.35;;;16.60;99.90;;;;;;5050426;28;20420;-78
2022/07/04 02:24:52;;;;;;;1.55;1.30;;;16.60;99.90;;;;;;5043493;28;20087;-78
2022/07/04 02:27:17;;;;;;;3.05;1.65;;;16.60;99.90;;;;;;5034535;28;20029;-78
2022/07/04 02:29:43;;;;;;;1.60;1.50;;;16.60;99.90;;;;;;5039500;28;20473;-79
2022/07/04 02:32:09;;;;;;;1.73;1.50;;;;;;;;;;5041138;28;20029;-79
2022/07/04 02:34:35;;;;;;;2.28;1.38;;;;;;;;;;5045192;28;20125;-79
2022/07/04 02:37:01;;;;;;;2.90;1.80;;;;;;;;;;5044258;28;20115;-79
2022/07/04 02:39:27;;;;;;;2.28;1.45;;;;;;;;;;5029146;28;20108;-79
2022/07/04 02:41:53;;;;;;;1.98;1.50;;;;;;;;;;5044350;28;20095;-79
2022/07/04 02:44:19;;;;;;;1.67;1.40;;;;;;;;;;5038546;28;20095;-78
2022/07/04 02:46:45;;;;;;;2.40;1.60;;;;;;;;;;5032296;28;20574;-79
2022/07/04 02:49:11;;;;;;;2.40;1.40;;;;;;;;;;5041177;28;20037;-79
2022/07/04 02:51:37;;;;;;;2.05;1.38;;;;;;;;;;5047484;28;20020;-79
2022/07/04 02:54:04;;;;;;;1.52;1.33;;;;;;;;;;5041227;28;20055;-79
2022/07/04 02:56:30;;;;;;;2.28;1.42;;;;;;;;;;5033613;28;20017;-79
2022/07/04 02:58:56;;;;;;;2.47;1.77;;;;;;;;;;5031877;28;20027;-79
2022/07/04 03:01:22;;;;;;;2.35;1.30;;;;;;;;;;5038770;28;20029;-79
2022/07/04 03:03:48;;;;;;;1.40;1.30;;;;;;;;;;5038170;28;20021;-79
2022/07/04 03:06:14;;;;;;;1.83;1.70;;;;;;;;;;5043815;28;20112;-84
2022/07/04 03:08:40;;;;;;;1.50;1.40;;;;;;;;;;5033581;28;20132;-83
2022/07/04 03:11:06;;;;;;;2.00;1.45;;;16.10;99.90;;;;;;5036413;28;20053;-80
2022/07/04 03:13:32;;;;;;;3.22;1.50;;;16.00;99.90;;;;;;5039101;28;20665;-80
2022/07/04 03:15:58;;;;;;;2.65;1.77;;;16.00;99.90;;;;;;5055785;28;20125;-80
2022/07/04 03:18:24;;;;;;;2.20;1.60;;;15.90;99.90;;;;;;5051297;28;20500;-79
2022/07/04 03:20:50;;;;;;;2.58;1.65;;;15.90;99.90;;;;;;5043666;28;20112;-79
2022/07/04 03:23:16;;;;;;;1.95;1.58;;;16.00;99.90;;;;;;5035409;28;20171;-80
2022/07/04 03:25:42;;;;;;;3.33;1.63;;;16.00;99.90;;;;;;5043164;28;20460;-79
2022/07/04 03:28:08;;;;;;;2.63;1.80;;;16.00;99.90;;;;;;5046551;28;20021;-80
2022/07/04 03:30:33;;;;;;;1.88;1.70;;;16.00;99.90;;;;;;5029131;28;20048;-79
2022/07/04 03:32:59;;;;;;;2.03;1.70;;;16.00;99.90;;;;;;5048097;28;20021;-79
2022/07/04 03:35:25;;;;;;;2.17;1.52;;;16.00;99.90;;;;;;5041303;28;20048;-79
2022/07/04 03:37:52;;;;;;;2.63;1.63;;;16.00;99.90;;;;;;5043019;28;20040;-79
2022/07/04 03:40:21;;;;;;;1.58;1.48;;;16.00;99.90;;;;;;5045571;28;20426;-79
2022/07/04 03:42:47;;;;;;;1.75;1.55;;;16.00;99.90;;;;;;5046353;28;20077;-79
2022/07/04 03:45:12;;;;;;;2.15;1.70;;;16.00;99.90;;;;;;5041742;28;20481;-79
2022/07/04 03:47:38;;;;;;;2.65;2.08;;;16.00;99.90;;;;;;5037024;28;20017;-80
2022/07/04 03:50:04;;;;;;;3.63;1.95;;;16.00;99.90;;;;;;5042564;28;20677;-80
2022/07/04 03:52:30;;;;;;;2.33;1.90;;;16.00;99.90;;;;;;5053632;28;20029;-79
2022/07/04 03:54:55;;;;;;;2.10;1.90;;;16.00;99.90;;;;;;5046191;28;20496;-80
2022/07/04 03:57:21;;;;;;;2.63;1.95;;;16.00;99.90;;;;;;5042074;28;20029;-80
2022/07/04 03:59:47;;;;;;;3.33;2.42;;;16.00;99.90;;;;;;5041090;28;20104;-80
2022/07/04 04:02:12;;;;;;;2.22;2.03;;;16.00;99.90;;;;;;5043175;28;20400;-80
2022/07/04 04:07:22;;;;;;;2.53;2.13;;;16.00;99.90;;;;;;5041082;28;20513;-80
2022/07/04 04:09:48;;;;;;;3.40;2.28;;;16.10;99.90;;;;;;5041637;28;20025;-80
2022/07/04 04:12:14;;;;;;;2.22;1.92;;;16.10;99.90;;;;;;5042158;28;20029;-80
2022/07/04 04:14:39;;;;;;;2.88;2.30;;;16.20;99.90;;;;;;5042319;28;20025;-80
2022/07/04 04:17:05;;;;;;;2.85;2.58;;;16.40;99.90;;;;;;5045543;28;20078;-80
2022/07/04 04:19:30;;;;;;;3.55;2.20;;;17.40;99.90;;;;;;5043623;28;20078;-80
2022/07/04 04:21:56;;;;;;;3.15;2.25;;;18.90;99.90;;;;;;5040374;28;20025;-79
2022/07/04 04:24:21;;;;;;;2.08;1.98;;;20.90;99.90;;;;;;5045722;28;20021;-79
2022/07/04 04:26:47;;;;;;;3.28;2.10;;;22.50;99.90;;;;;;5045364;28;20059;-79
2022/07/04 04:29:13;;;;;;;5.90;2.70;;;23.70;99.90;;;;;;5047793;28;20032;-79
2022/07/04 04:31:38;;;;;;;4.63;2.00;;;24.10;97.60;;;;;;5047915;28;20072;-79
2022/07/04 04:34:04;;;;;;;3.50;2.20;;;23.80;96.80;;;;;;5044518;28;20090;-79
2022/07/04 04:36:30;;;;;;;3.63;2.30;;;23.10;96.90;;;;;;5030832;28;20029;-79
2022/07/04 04:38:55;;;;;;;4.53;2.50;;;22.40;97.60;;;;;;5037231;28;20075;-78
2022/07/04 04:41:21;;;;;;;2.53;2.28;;;21.80;98.70;;;;;;5045077;28;20241;-79
2022/07/04 04:43:47;;;;;;;5.28;2.30;;;21.20;99.70;;;;;;5043326;28;20029;-78
2022/07/04 04:46:12;;;;;;;5.28;2.50;;;20.80;99.90;;;;;;5041974;28;21413;-78
2022/07/04 04:48:38;;;;;;;3.72;1.90;;;20.40;99.90;;;;;;5025711;28;20025;-78
2022/07/04 04:51:04;;;;;;;2.55;2.30;;;20.10;99.90;;;;;;5037195;28;20077;-78
2022/07/04 04:53:30;;;;;;;3.28;2.00;;;19.80;99.90;;;;;;5036042;28;20507;-82
2022/07/04 04:55:55;;;;;;;4.10;2.40;;;19.70;99.90;;;;;;5035645;28;20078;-83
2022/07/04 04:58:22;;;;;;;8.15;2.50;;;19.60;99.90;;;;;;5027159;28;20047;-83
2022/07/04 05:00:49;;;;;;;4.53;2.80;;;19.40;99.90;;;;;;5035879;28;20042;-82
2022/07/04 05:03:18;;;;;;;4.97;2.30;;;19.40;99.90;;;;;;5031620;28;20052;-82
2022/07/04 05:05:45;;;;;;;5.55;3.00;;;19.40;99.90;;;;;;5035198;28;20111;-82
2022/07/04 05:08:12;;;;;;;7.00;2.63;;;19.40;99.90;;;;;;5032252;28;20179;-82
2022/07/04 05:10:38;;;;;;;3.17;2.25;;;19.50;99.90;;;;;;5041973;28;20104;-83
2022/07/04 05:13:04;;;;;;;4.35;1.77;;;19.60;99.90;;;;;;5045556;28;20086;-83
2022/07/04 05:15:29;;;;;;;2.75;1.50;;;19.70;99.90;;;;;;5028941;28;20032;-82
2022/07/04 05:17:55;;;;;;;1.52;1.42;;;19.80;99.90;;;;;;5030605;28;20033;-82
2022/07/04 05:20:21;;;;;;;4.00;2.05;;;19.80;99.90;;;;;;5039774;28;20059;-81
2022/07/04 05:22:46;;;;;;;5.32;1.70;;;19.80;99.90;;;;;;5040547;28;20454;-81
2022/07/04 05:25:12;;;;;;;3.92;1.60;;;19.80;99.90;;;;;;5040706;28;20091;-81
2022/07/04 05:27:38;;;;;;;4.82;1.42;;;19.90;99.90;;;;;;5031436;28;20017;-80
2022/07/04 05:30:04;;;;;;;1.77;1.20;;;20.00;99.90;;;;;;5036966;28;20039;-80
2022/07/04 05:32:30;;;;;;;2.40;1.05;;;20.10;99.90;;;;;;5035335;28;20044;-80
2022/07/04 05:34:56;;;;;;;4.63;1.27;;;20.20;99.90;;;;;;5035730;28;20057;-80
2022/07/04 05:37:22;;;;;;;2.05;1.13;;;20.20;99.80;;;;;;5039714;28;20060;-80
2022/07/04 05:39:47;;;;;;;3.47;0.95;;;20.40;99.40;;;;;;5045140;28;20052;-80
2022/07/04 05:42:13;;;;;;;2.00;0.90;;;20.50;97.70;;;;;;5047841;28;20033;-80
2022/07/04 05:44:39;;;;;;;2.60;0.85;;;20.50;97.70;;;;;;5047808;28;20060;-81
2022/07/04 05:47:04;;;;;;;1.75;0.80;;;20.60;96.30;;;;;;5035486;28;20033;-80
2022/07/04 05:49:30;;;;;;;2.40;0.82;;;20.70;96.40;;;;;;5043792;28;20021;-80
2022/07/04 05:51:55;;;;;;;2.58;0.98;;;20.80;96.20;;;;;;5044562;28;20032;-81
2022/07/04 05:54:21;;;;;;;2.80;0.90;;;20.90;94.70;;;;;;5043027;28;20550;-81
2022/07/04 05:56:47;;;;;;;3.42;0.90;;;21.00;95.00;;;;;;5045610;28;20412;-81
2022/07/04 05:59:12;;;;;;;2.55;0.77;;;21.10;93.90;;;;;;5044671;28;20033;-81
2022/07/04 06:01:39;;;;;;;2.22;0.80;;;21.00;93.80;;;;;;5042833;28;20037;-81
2022/07/04 06:04:05;;;;;;;1.50;0.80;;;21.00;94.10;;;;;;5042033;28;20493;-82
2022/07/04 06:06:31;;;;;;;1.23;0.63;;;21.10;93.60;;;;;;5042864;28;20029;-81
2022/07/04 06:08:57;;;;;;;4.03;0.80;;;21.10;93.80;;;;;;5041108;28;20481;-81
2022/07/04 06:11:23;;;;;;;2.78;0.80;;;21.20;93.50;;;;;;5046369;28;20028;-80
2022/07/04 06:13:49;;;;;;;1.85;0.60;;;21.20;93.50;;;;;;5046022;28;20029;-80
2022/07/04 06:16:16;;;;;;;3.20;0.77;;;21.40;93.50;;;;;;5047177;28;20477;-80
2022/07/04 06:18:42;;;;;;;2.28;0.90;;;21.40;92.50;;;;;;5043781;28;20115;-80
2022/07/04 06:21:08;;;;;;;3.25;0.90;;;21.60;92.00;;;;;;5044431;28;20496;-80
2022/07/04 06:23:34;;;;;;;1.13;0.70;;;21.70;91.60;;;;;;5038910;28;20044;-81
2022/07/04 06:25:59;;;;;;;2.28;0.70;;;21.80;91.10;;;;;;5041309;28;20033;-80
2022/07/04 06:28:25;;;;;;;2.13;0.63;;;21.70;90.50;;;;;;5044160;28;20077;-80
2022/07/04 06:30:50;;;;;;;6.25;0.82;;;21.80;90.80;;;;;;5048331;28;20316;-80
2022/07/04 06:33:16;;;;;;;5.28;0.85;;;22.00;90.30;;;;;;5036705;28;20385;-80
2022/07/04 06:35:58;;;;;;;2.58;0.80;;;21.90;88.30;;;;;;5034428;28;20033;-80
2022/07/04 06:38:29;;;;;;;2.05;0.65;;;21.90;88.60;;;;;;5038762;28;20033;-80
2022/07/04 06:40:57;;;;;;;3.25;0.63;;;22.00;88.80;;;;;;5042990;28;20500;-80
2022/07/04 06:43:24;;;;;;;2.55;0.70;;;22.10;87.00;;;;;;5041839;28;20512;-80
2022/07/04 06:45:50;;;;;;;4.65;0.80;;;22.20;87.30;;;;;;5036031;28;20366;-80
2022/07/04 06:48:16;;;;;;;2.05;0.82;;;22.30;86.50;;;;;;5036999;28;20159;-79
2022/07/04 06:50:42;;;;;;;1.50;0.50;;;22.40;83.90;;;;;;5038938;28;20017;-80
2022/07/04 06:53:09;;;;;;;1.23;0.70;;;22.40;86.40;;;;;;5041339;28;20496;-79
2022/07/04 06:55:38;;;;;;;2.20;0.55;;;22.50;84.50;;;;;;5044930;28;20033;-79
2022/07/04 06:58:05;;;;;;;2.92;0.63;;;22.70;84.00;;;;;;5044291;28;20059;-79
2022/07/04 07:00:30;;;;;;;2.97;0.60;;;22.90;83.20;;;;;;5035100;28;20041;-82
2022/07/04 07:02:58;;;;;;;5.47;0.60;;;23.10;81.80;;;;;;5039913;28;20091;-77
2022/07/04 07:05:27;;;;;;;2.58;0.75;;;23.20;80.10;;;;;;5040466;28;20059;-77
2022/07/04 07:07:53;;;;;;;1.45;0.50;;;23.30;79.90;;;;;;5042699;28;20034;-77
2022/07/04 07:10:19;;;;;;;1.80;0.60;;;23.50;79.40;;;;;;5045915;28;20028;-77
2022/07/04 07:12:45;;;;;;;1.15;0.50;;;23.60;78.60;;;;;;5055667;28;20056;-77
2022/07/04 07:15:11;;;;;;;1.10;0.70;;;23.70;75.10;;;;;;5034599;28;20056;-77
2022/07/04 07:17:37;;;;;;;2.60;0.70;;;23.60;74.60;;;;;;5032706;28;20481;-77
2022/07/04 07:20:03;;;;;;;1.42;0.50;;;23.70;75.30;;;;;;5041972;28;20025;-77
2022/07/04 07:22:29;;;;;;;2.80;0.50;;;23.80;73.30;;;;;;5045263;28;20087;-77
2022/07/04 07:24:54;;;;;;;1.40;0.60;;;23.80;72.60;;;;;;5045190;28;20025;-77
2022/07/04 07:27:20;;;;;;;1.85;0.57;;;23.80;70.20;;;;;;5041947;28;20414;-77
2022/07/04 07:29:46;;;;;;;1.58;0.50;;;23.90;71.50;;;;;;5039407;28;20120;-77
2022/07/04 07:32:11;;;;;;;1.35;0.45;;;24.00;69.50;;;;;;5036760;28;20059;-77
2022/07/04 07:34:37;;;;;;;1.20;0.40;;;24.10;69.60;;;;;;5037586;28;20041;-77
2022/07/04 07:37:03;;;;;;;1.25;0.40;;;24.30;70.70;;;;;;5039804;28;20065;-77
2022/07/04 07:39:28;;;;;;;1.65;0.40;;;24.40;67.60;;;;;;5051151;28;20028;-77
2022/07/04 07:41:54;;;;;;;1.45;0.40;;;24.40;67.70;;;;;;5057854;28;20034;-77
2022/07/04 07:44:20;;;;;;;1.75;0.35;;;24.50;67.30;;;;;;5045202;28;20086;-77
2022/07/04 07:46:45;;;;;;;2.15;0.55;;;24.60;66.20;;;;;;5047878;28;20120;-77
2022/07/04 07:49:11;;;;;;;1.20;0.50;;;24.60;64.30;;;;;;5034117;28;20029;-77
2022/07/04 07:51:36;;;;;;;0.95;0.40;;;24.50;63.20;;;;;;5030654;28;20190;-77
2022/07/04 07:54:02;;;;;;;2.20;0.45;;;24.50;64.10;;;;;;5032846;28;20024;-77
2022/07/04 07:56:28;;;;;;;2.72;0.40;;;24.50;64.20;;;;;;5044125;28;20025;-77
2022/07/04 07:58:53;;;;;;;1.45;0.45;;;24.70;64.10;;;;;;5039974;28;20029;-78
2022/07/04 08:01:20;;;;;;;0.65;0.30;;;24.90;62.70;;;;;;5034712;28;20029;-78
2022/07/04 08:06:31;;;;;;;2.47;0.40;;;25.00;60.60;;;;;;5032027;28;20102;-78
2022/07/04 08:08:56;;;;;;;1.05;0.50;;;25.30;60.20;;;;;;5043215;28;20028;-77
2022/07/04 08:11:22;;;;;;;1.17;0.50;;;25.50;59.80;;;;;;5050659;28;20087;-77
2022/07/04 08:13:48;;;;;;;2.38;0.40;;;25.70;57.80;;;;;;5052919;28;20117;-77
2022/07/04 08:16:13;;;;;;;2.03;0.30;;;25.90;57.80;;;;;;5044380;28;20625;-78
2022/07/04 08:18:39;;;;;;;0.43;0.40;;;25.80;56.00;;;;;;5037931;28;20055;-74
2022/07/04 08:21:05;;;;;;;0.80;0.30;;;25.80;55.60;;;;;;5033879;28;20367;-75
2022/07/04 08:23:32;;;;;;;0.68;0.30;;;25.90;58.80;;;;;;5036997;28;20219;-75
2022/07/04 08:25:59;;;;;;;2.20;0.47;;;26.00;59.90;;;;;;5054639;28;20033;-76
2022/07/04 08:28:25;;;;;;;1.25;0.40;;;25.90;57.50;;;;;;5043851;28;20032;-77
2022/07/04 08:30:50;;;;;;;0.60;0.30;;;25.90;58.50;;;;;;5038697;28;20075;-76
2022/07/04 08:33:16;;;;;;;1.80;0.40;;;26.10;58.20;;;;;;5035760;28;20087;-76
2022/07/04 08:35:42;;;;;;;1.35;0.50;;;26.20;57.70;;;;;;5044646;28;20116;-76
2022/07/04 08:38:08;;;;;;;0.95;0.47;;;26.30;57.00;;;;;;5032186;28;20037;-75
2022/07/04 08:40:34;;;;;;;0.88;0.30;;;26.20;56.30;;;;;;5031640;28;20032;-76
2022/07/04 08:43:03;;;;;;;0.77;0.30;;;26.20;56.60;;;;;;5035338;28;20025;-76
2022/07/04 08:45:32;;;;;;;2.47;0.30;;;26.10;56.20;;;;;;5041704;28;20024;-75
2022/07/04 08:48:03;;;;;;;0.35;0.30;;;26.10;56.40;;;;;;5027634;28;20029;-76
2022/07/04 08:50:49;;;;;;;1.48;0.40;;;26.30;55.80;;;;;;5035960;28;20039;-78
2022/07/04 08:53:20;;;;;;;1.95;0.47;;;26.30;55.80;;;;;;5040158;28;20028;-79
2022/07/04 08:58:33;;;;;;;1.50;0.55;;;26.50;56.40;;;;;;5031903;28;20495;-76
2022/07/04 09:01:03;;;;;;;0.70;0.40;;;26.40;57.00;;;;;;5041403;28;20086;-75
2022/07/04 09:03:30;;;;;;;1.05;0.40;;;26.50;57.00;;;;;;5029734;28;20230;-76
2022/07/04 09:05:56;;;;;;;0.65;0.30;;;26.60;56.80;;;;;;5045620;28;20020;-74
2022/07/04 09:08:22;;;;;;;1.45;0.40;;;26.50;56.20;;;;;;5027197;28;20112;-75
2022/07/04 09:10:49;;;;;;;1.15;0.47;;;26.50;56.80;;;;;;5032295;28;20120;-76
2022/07/04 09:13:17;;;;;;;2.30;0.60;;;26.70;57.50;;;;;;5039531;28;20030;-75
2022/07/04 09:15:44;;;;;;;0.50;0.40;;;26.50;56.10;;;;;;5032121;28;20279;-75
2022/07/04 09:18:27;;;;;;;1.23;0.60;;;26.60;57.00;;;;;;5033776;28;20029;-76
2022/07/04 09:20:59;;;;;;;3.40;0.68;;;26.70;57.40;;;;;;5038843;28;20086;-75
2022/07/04 09:23:31;;;;;;;1.20;0.60;;;26.60;57.10;;;;;;5037561;28;20500;-76
2022/07/04 09:26:21;;;;;;;1.35;0.60;;;26.40;55.70;;;;;;5049102;28;20290;-75
2022/07/04 09:28:56;;;;;;;4.20;0.60;;;26.00;55.50;;;;;;5025231;28;20021;-75
2022/07/04 09:31:24;;;;;;;1.85;0.57;;;25.60;56.40;;;;;;5025284;28;20075;-75
2022/07/04 09:33:55;;;;;;;1.20;0.60;;;25.60;57.60;;;;;;5042723;28;20080;-74
2022/07/04 09:36:26;;;;;;;2.67;0.70;;;25.80;58.40;;;;;;5036950;28;20583;-76
2022/07/04 09:39:20;;;;;;;2.50;0.90;;;26.00;56.20;;;;;;5041189;28;20041;-78
2022/07/04 09:41:53;;;;;;;2.38;0.90;;;26.30;59.00;;;;;;5028749;28;20227;-78
2022/07/04 09:44:19;;;;;;;2.67;0.87;;;26.30;84.30;;;;;;5041849;28;20025;-78
2022/07/04 09:46:45;;;;;;;1.33;0.73;;;26.10;83.10;;;;;;5045651;28;20588;-78
2022/07/04 09:49:10;;;;;;;4.20;0.85;;;26.10;83.20;;;;;;5027368;28;20135;-77
2022/07/04 09:51:39;;;;;;;1.00;0.70;;;26.00;80.80;;;;;;5041904;28;20029;-78
2022/07/04 09:54:13;;;;;;;1.88;0.90;;;26.10;82.30;;;;;;5043084;28;20624;-78
2022/07/04 09:56:40;;;;;;;2.03;0.80;;;26.10;80.90;;;;;;5032608;28;20341;-80
2022/07/04 09:59:06;;;;;;;1.50;0.75;;;26.20;82.00;;;;;;5039341;28;20676;-79
2022/07/04 10:01:32;;;;;;;1.73;0.80;;;26.30;80.50;;;;;;5043324;28;20437;-79
2022/07/04 10:03:58;;;;;;;1.52;0.80;;;26.30;80.50;;;;;;5036523;28;20586;-79
2022/07/04 10:06:25;;;;;;;1.00;0.70;;;26.40;79.10;;;;;;5038247;28;20063;-79
2022/07/04 10:08:51;;;;;;;1.52;0.70;;;26.60;82.00;;;;;;5023616;28;20022;-79
2022/07/04 10:11:18;;;;;;;2.92;1.20;;;26.80;81.60;;;;;;5034004;28;20022;-79
2022/07/04 10:13:44;;;;;;;2.33;1.15;;;26.80;81.50;;;;;;5052762;28;20040;-79
2022/07/04 10:16:11;;;;;;;3.10;0.98;;;26.70;81.20;;;;;;5042198;28;20736;-79
2022/07/04 10:18:37;;;;;;;2.90;1.10;;;26.60;81.00;;;;;;5039169;28;23501;-79
2022/07/04 10:21:02;;;;;;;2.60;1.15;;;26.60;81.80;;;;;;5042862;28;20041;-79
2022/07/04 10:23:31;;;;;;;1.80;0.85;;;26.60;80.60;;;;;;5044257;28;20492;-79
2022/07/04 10:25:57;;;;;;;1.95;0.90;;;26.40;79.60;;;;;;5030224;28;20021;-79
2022/07/04 10:28:23;;;;;;;2.08;0.93;;;26.10;77.70;;;;;;5031749;28;20026;-79
2022/07/04 10:30:51;;;;;;;1.25;0.88;;;26.10;78.50;;;;;;5033572;28;20071;-79
2022/07/04 10:33:31;;;;;;;2.58;0.73;;;26.10;77.20;;;;;;5043970;28;20022;-79
2022/07/04 10:36:02;;;;;;;0.93;0.70;;;26.20;78.00;;;;;;5044438;28;20029;-79
2022/07/04 10:38:32;;;;;;;0.70;0.70;;;26.20;74.50;;;;;;5039598;28;20092;-77
2022/07/04 10:41:03;;;;;;;1.70;0.68;;;25.90;85.40;;;;;;5043459;28;20473;-78
2022/07/04 10:43:35;;;;;;;1.55;0.80;;;25.80;85.90;;;;;;5047811;28;20033;-78
2022/07/04 10:46:15;;;;;;;0.93;0.70;;;25.90;86.90;;;;;;5045063;28;20044;-78
2022/07/04 10:48:57;;;;;;;1.05;0.70;;;25.70;83.00;;;;;;5044719;28;20032;-77
2022/07/04 10:51:45;;;;;;;5.22;0.80;;;25.60;83.90;;;;;;5045183;28;20510;-77
2022/07/04 10:54:14;;;;;;;3.10;0.90;;;25.80;84.50;;;;;;5042682;28;20551;-76
2022/07/04 10:56:47;;;;;;;1.58;0.73;;;25.90;84.10;;;;;;5034346;28;20414;-76
2022/07/04 10:59:25;;;;;;;3.20;0.90;;;26.10;82.40;;;;;;5028788;28;20036;-77
2022/07/04 11:02:09;;;;;;;2.17;0.80;;;26.00;80.90;;;;;;5046792;28;20444;-76
2022/07/04 11:04:55;;;;;;;1.25;0.70;;;26.00;81.70;;;;;;5039898;28;20045;-76
2022/07/04 11:07:30;;;;;;;1.33;0.60;;;26.10;80.50;;;;;;5029283;28;20043;-76
2022/07/04 11:10:21;;;;;;;1.60;0.70;;;26.20;82.40;;;;;;5047330;28;20086;-77
2022/07/04 11:12:56;;;;;;;1.88;0.60;;;26.30;80.70;;;;;;5028736;28;20033;-76
2022/07/04 11:15:28;;;;;;;0.95;0.60;;;26.50;81.40;;;;;;5031689;28;20587;-77
2022/07/04 11:17:56;;;;;;;0.77;0.57;;;26.40;79.70;;;;;;5041112;28;20389;-77
2022/07/04 11:20:23;;;;;;;2.22;0.75;;;26.40;80.60;;;;;;5035913;28;20029;-77
2022/07/04 11:22:49;;;;;;;1.02;0.50;;;26.40;79.30;;;;;;5035143;28;20049;-76
2022/07/04 11:25:15;;;;;;;1.17;0.50;;;26.50;79.20;;;;;;5037322;28;20022;-76
2022/07/04 11:27:41;;;;;;;0.77;0.50;;;26.40;79.20;;;;;;5038512;28;20029;-77
2022/07/04 11:30:08;;;;;;;1.55;0.60;;;26.50;78.70;;;;;;5039986;28;20025;-77
2022/07/04 11:32:35;;;;;;;1.77;0.60;;;26.50;77.50;;;;;;5047830;28;20024;-77
2022/07/04 11:35:03;;;;;;;1.20;0.40;;;26.40;49.10;;;;;;4332149;28;10000959;-80
2022/07/04 11:37:28;;;;;;;0.98;0.40;;;26.50;50.40;;;;;;5003844;28;20249;-77
2022/07/04 11:45:02;;;;;;;1.95;0.50;;;26.50;50.20;;;;;;5015119;28;20762;-76
2022/07/04 11:45:50;;;;;;;1.15;0.60;;;26.70;50.20;;;;;;5016107;28;20483;-75
2022/07/04 11:48:22;;;;;;;1.65;0.57;;;26.80;51.70;;;;;;5005768;28;20022;-75
2022/07/04 11:50:49;;;;;;;2.53;0.50;;;26.80;51.40;;;;;;5012021;28;20132;-75
2022/07/04 11:53:16;;;;;;;0.65;0.47;;;27.00;49.90;;;;;;5022704;28;20160;-75
2022/07/04 11:56:01;;;;;;;1.27;0.50;;;27.10;49.50;;;;;;5022184;28;20045;-75
2022/07/04 11:58:42;;;;;;;0.80;0.47;;;27.00;48.60;;;;;;5005004;28;20037;-77
2022/07/04 12:01:09;;;;;;;1.00;0.60;;;26.90;49.20;;;;;;5018040;28;20037;-81
2022/07/04 12:03:35;;;;;;;1.42;0.40;;;26.80;50.10;;;;;;5021992;28;20069;-79
2022/07/04 12:06:05;;;;;;;0.80;0.50;;;26.80;50.20;;;;;;5014498;28;20069;-77
2022/07/04 12:08:31;;;;;;;1.23;0.50;;;26.90;50.90;;;;;;5033526;28;20030;-77
2022/07/04 12:10:57;;;;;;;1.55;0.60;;;27.10;50.20;;;;;;5037451;28;20037;-77
2022/07/04 12:13:24;;;;;;;0.93;0.50;;;27.20;49.10;;;;;;5040724;28;20580;-79
2022/07/04 12:15:56;;;;;;;0.65;0.40;;;27.30;48.90;;;;;;5042198;28;20033;-79
2022/07/04 12:18:22;;;;;;;0.45;0.40;;;27.50;49.20;;;;;;5039409;28;20029;-79
2022/07/04 12:20:49;;;;;;;1.13;0.60;;;27.60;48.00;;;;;;5043660;28;20037;-79
2022/07/04 12:23:16;;;;;;;1.05;0.50;;;27.70;48.20;;;;;;5034721;28;20076;-79
2022/07/04 12:25:45;;;;;;;1.58;0.52;;;27.70;48.70;;;;;;5033786;28;20025;-80
2022/07/04 12:28:14;;;;;;;0.65;0.40;;;27.50;47.00;;;;;;5037778;28;20501;-79
2022/07/04 12:30:49;;;;;;;0.43;0.30;;;27.40;47.30;;;;;;5049521;28;20394;-75
2022/07/04 12:33:18;;;;;;;2.38;0.40;;;27.40;47.50;;;;;;5033478;28;20500;-74
2022/07/04 12:35:47;;;;;;;0.65;0.47;;;27.60;47.90;;;;;;5038847;28;20091;-74
2022/07/04 12:38:22;;;;;;;2.20;0.47;;;27.60;48.60;;;;;;5040218;28;20086;-74
2022/07/04 12:40:54;;;;;;;2.10;0.60;;;27.80;48.80;;;;;;5051917;28;20032;-74
2022/07/04 12:43:21;;;;;;;1.13;0.60;;;27.80;47.90;;;;;;5036555;28;20037;-74
2022/07/04 12:45:48;;;;;;;2.30;0.35;;;27.90;48.20;;;;;;5035210;28;20284;-75
2022/07/04 12:48:19;;;;;;;2.78;0.50;;;28.30;48.40;;;;;;5036393;28;20036;-77
2022/07/04 12:50:45;;;;;;;0.57;0.30;;;28.50;47.50;;;;;;5042789;28;20028;-80
2022/07/04 12:53:11;;;;;;;2.42;0.40;;;28.40;46.60;;;;;;5032305;28;20064;-80
2022/07/04 12:55:41;;;;;;;0.60;0.50;;;28.10;46.40;;;;;;5037701;28;20021;-81
2022/07/04 12:58:07;;;;;;;0.30;0.30;;;28.20;47.50;;;;;;5043367;28;20029;-79
2022/07/04 13:00:33;;;;;;;2.05;0.50;;;28.50;47.20;;;;;;5035659;28;20037;-80
2022/07/04 13:02:58;;;;;;;1.15;0.57;;;28.60;46.00;;;;;;5029321;28;20075;-80
2022/07/04 13:05:24;;;;;;;2.92;0.50;;;28.60;44.70;;;;;;5037075;28;20041;-81
2022/07/04 13:07:49;;;;;;;0.47;0.40;;;28.50;46.10;;;;;;5043024;28;20556;-81
2022/07/04 13:10:15;;;;;;;0.80;0.38;;;28.60;46.00;;;;;;5034716;28;20528;-80
2022/07/04 13:12:41;;;;;;;0.75;0.30;;;;;;;;;;5034982;28;20464;-73
2022/07/04 13:15:11;;;;;;;1.90;0.30;;;;;;;;;;5030744;28;20045;-74
2022/07/04 13:17:37;;;;;;;1.58;0.40;;;;;;;;;;5048111;28;20553;-74
2022/07/04 13:20:03;;;;;;;3.05;0.40;;;;;;;;;;5032668;28;20060;-74
2022/07/04 13:22:29;;;;;;;1.75;0.40;;;;;;;;;;5032975;28;20027;-74